Moyie Springs, Idaho
Current Conditions -  °F | °C
As of 4:55 PM on Tuesday 21 Oct 2014 (Local Time) from K65S Reporting Station
Overcast Overcast  
Wind Chill: 54°   Ceiling: 5500
Heat Index: 54°   Visibility: 10mi
Dew Point: 41°   Wind: 3mph
Humidity: 62%   Direction: 200°SSW
Pressure: 29.92"   Gusts: NA
Location:  48.73°N, 116.19°W
Report Text: K65S 212355Z AUTO 20003KT 10SM FEW050 BKN055 OVC090 12/05 A2992 RMK AO2
Loading
Personal Weather Stations






























Interactive Weather Map
Tropical Storm Tracking
New forecast layout! Learn more

10-Day Weather Forecast

Advertisements
Track Severe Weather on mobile